Time;durP1;ratioP1;P1;durP2;ratioP2;P2;SDS_P1;SDS_P2;PMS_P1;PMS_P2;Temp;Humidity;BMP_temperature;BMP_pressure;BME280_temperature;BME280_humidity;BME280_pressure;Samples;Min_cycle;Max_cycle;Signal;HPM_P1;HPM_P2
2022/07/22 00:02:02;;;;;;;15.52;9.50;;;19.80;1.00;;;;;;5091314;28;20378;-56
2022/07/22 00:04:27;;;;;;;13.30;9.10;;;19.70;1.00;;;;;;5091908;28;21171;-52
2022/07/22 00:06:53;;;;;;;14.87;9.70;;;19.60;1.00;;;;;;5091247;28;20406;-59
2022/07/22 00:09:19;;;;;;;18.00;10.18;;;19.60;1.00;;;;;;5092048;28;20382;-52
2022/07/22 00:11:44;;;;;;;15.02;10.30;;;19.60;1.00;;;;;;5091262;28;20449;-53
2022/07/22 00:14:10;;;;;;;17.02;10.65;;;19.70;1.00;;;;;;5091913;28;20379;-53
2022/07/22 00:16:35;;;;;;;16.40;9.80;;;19.70;1.00;;;;;;5091835;28;20715;-54
2022/07/22 00:19:01;;;;;;;15.00;9.63;;;19.60;1.00;;;;;;5091116;28;20466;-53
2022/07/22 00:21:27;;;;;;;17.05;10.90;;;19.60;1.00;;;;;;5091991;28;20393;-53
2022/07/22 00:23:52;;;;;;;17.48;11.02;;;19.60;1.00;;;;;;5091210;28;20457;-53
2022/07/22 00:26:18;;;;;;;17.00;11.30;;;19.60;1.00;;;;;;5090263;28;20785;-56
2022/07/22 00:28:43;;;;;;;15.53;11.10;;;19.50;1.00;;;;;;5091187;28;20844;-56
2022/07/22 00:31:09;;;;;;;14.57;9.57;;;19.30;1.00;;;;;;5079643;28;20479;-52
2022/07/22 00:33:35;;;;;;;14.65;10.63;;;19.40;1.00;;;;;;5079853;28;20388;-53
2022/07/22 00:36:00;;;;;;;15.32;9.27;;;19.30;1.00;;;;;;5070815;28;20380;-53
2022/07/22 00:38:26;;;;;;;16.10;10.77;;;19.30;1.00;;;;;;5071186;28;20429;-53
2022/07/22 00:40:52;;;;;;;17.03;10.73;;;19.30;1.00;;;;;;5070570;28;20871;-52
2022/07/22 00:43:17;;;;;;;15.52;9.93;;;19.30;1.00;;;;;;5071135;28;20486;-53
2022/07/22 00:45:43;;;;;;;14.68;9.82;;;19.30;1.00;;;;;;5070476;28;20376;-53
2022/07/22 00:48:09;;;;;;;15.23;10.17;;;19.30;1.00;;;;;;5071182;28;20407;-52
2022/07/22 00:50:34;;;;;;;18.70;9.80;;;19.20;1.00;;;;;;5071276;28;20426;-54
2022/07/22 00:53:00;;;;;;;14.65;9.70;;;19.10;1.00;;;;;;5081708;28;20414;-54
2022/07/22 00:55:27;;;;;;;15.32;10.10;;;19.10;1.00;;;;;;5070992;28;20371;-53
2022/07/22 00:57:52;;;;;;;15.48;9.80;;;19.00;1.00;;;;;;5070521;28;20403;-53
2022/07/22 01:00:21;;;;;;;14.00;9.45;;;19.00;1.00;;;;;;5070730;28;20390;-54
2022/07/22 01:02:47;;;;;;;14.88;10.15;;;19.00;1.00;;;;;;5070106;28;20409;-54
2022/07/22 01:05:13;;;;;;;15.55;9.18;;;19.00;1.00;;;;;;5088661;28;20366;-54
2022/07/22 01:07:39;;;;;;;15.77;10.60;;;19.10;1.00;;;;;;5084929;28;20408;-62
2022/07/22 01:10:06;;;;;;;14.23;9.48;;;19.10;1.00;;;;;;5071595;28;20390;-54
2022/07/22 01:12:32;;;;;;;17.77;10.25;;;19.10;1.00;;;;;;5086291;28;20434;-55
2022/07/22 01:14:58;;;;;;;15.37;10.30;;;19.00;1.00;;;;;;5079972;28;20410;-54
2022/07/22 01:17:24;;;;;;;17.65;11.05;;;19.00;1.00;;;;;;5089572;28;20382;-55
2022/07/22 01:19:50;;;;;;;15.97;10.00;;;18.90;1.00;;;;;;5089597;28;20481;-55
2022/07/22 01:22:16;;;;;;;16.08;10.57;;;18.90;1.00;;;;;;5090111;28;20378;-54
2022/07/22 01:24:42;;;;;;;16.97;10.07;;;18.90;1.00;;;;;;5090347;28;20392;-60
2022/07/22 01:27:07;;;;;;;15.00;10.18;;;19.00;1.00;;;;;;5090001;28;20425;-52
2022/07/22 01:29:33;;;;;;;15.40;9.77;;;18.80;1.00;;;;;;5090463;28;20839;-52
2022/07/22 01:31:59;;;;;;;16.58;11.10;;;18.80;1.00;;;;;;5088455;28;20368;-52
2022/07/22 01:34:25;;;;;;;15.98;11.07;;;18.90;1.00;;;;;;5090777;28;20413;-53
2022/07/22 01:36:50;;;;;;;16.60;11.30;;;18.70;1.00;;;;;;5089707;28;20393;-51
2022/07/22 01:39:16;;;;;;;17.75;10.68;;;18.70;1.00;;;;;;5080380;28;20391;-54
2022/07/22 01:41:42;;;;;;;16.88;10.95;;;18.70;1.00;;;;;;5069404;28;20422;-62
2022/07/22 01:44:08;;;;;;;18.73;11.20;;;18.70;1.00;;;;;;5088562;28;20386;-54
2022/07/22 01:46:33;;;;;;;17.90;11.30;;;18.70;1.00;;;;;;5090187;28;20522;-56
2022/07/22 01:48:59;;;;;;;16.20;10.83;;;18.80;1.00;;;;;;5089478;28;20905;-54
2022/07/22 01:51:25;;;;;;;17.60;11.20;;;18.70;1.00;;;;;;5090276;28;20382;-53
2022/07/22 01:53:51;;;;;;;16.83;11.47;;;18.80;1.00;;;;;;5089584;28;20827;-54
2022/07/22 01:56:16;;;;;;;15.50;10.83;;;18.80;1.00;;;;;;5089759;28;20374;-54
2022/07/22 01:58:42;;;;;;;15.52;10.85;;;18.80;1.00;;;;;;5089612;28;20382;-63
2022/07/22 02:01:08;;;;;;;17.55;11.70;;;18.70;1.00;;;;;;5089452;28;20379;-52
2022/07/22 02:03:34;;;;;;;18.73;11.90;;;18.70;1.00;;;;;;5090009;28;20378;-52
2022/07/22 02:06:00;;;;;;;18.08;11.90;;;18.70;1.00;;;;;;5087910;28;21223;-52
2022/07/22 02:08:25;;;;;;;21.57;14.57;;;18.70;1.00;;;;;;5090094;28;20433;-53
2022/07/22 02:10:51;;;;;;;19.92;13.20;;;18.70;1.00;;;;;;5089223;28;20374;-53
2022/07/22 02:13:16;;;;;;;22.25;13.60;;;18.70;1.00;;;;;;5089981;28;20394;-52
2022/07/22 02:15:43;;;;;;;19.13;13.23;;;18.60;1.00;;;;;;5087768;28;20405;-61
2022/07/22 02:18:16;;;;;;;21.45;13.30;;;18.70;1.00;;;;;;5069798;28;20422;-55
2022/07/22 02:20:42;;;;;;;19.60;14.00;;;18.80;1.00;;;;;;5069281;28;20408;-61
2022/07/22 02:23:08;;;;;;;18.88;12.57;;;18.70;1.00;;;;;;5069232;28;20470;-57
2022/07/22 02:25:34;;;;;;;20.80;13.70;;;18.70;1.00;;;;;;5069781;28;20804;-56
2022/07/22 02:28:00;;;;;;;22.23;13.97;;;18.60;1.00;;;;;;5068705;28;20427;-58
2022/07/22 02:30:26;;;;;;;21.08;14.45;;;18.60;1.00;;;;;;5069726;28;20741;-55
2022/07/22 02:32:52;;;;;;;21.23;13.88;;;18.60;1.00;;;;;;5068624;28;20379;-55
2022/07/22 02:35:17;;;;;;;23.23;14.03;;;18.60;1.00;;;;;;5069272;28;20708;-55
2022/07/22 02:37:43;;;;;;;19.33;13.37;;;18.50;1.00;;;;;;5069724;28;20408;-61
2022/07/22 02:40:09;;;;;;;20.13;12.95;;;18.40;1.00;;;;;;5068978;28;20383;-56
2022/07/22 02:42:35;;;;;;;18.52;13.02;;;18.40;1.00;;;;;;5069553;28;20380;-59
2022/07/22 02:45:00;;;;;;;19.02;12.32;;;18.40;1.00;;;;;;5069029;28;20376;-60
2022/07/22 02:47:26;;;;;;;18.67;13.07;;;18.40;1.00;;;;;;5072316;28;20923;-52
2022/07/22 02:49:52;;;;;;;20.35;13.40;;;18.40;1.00;;;;;;5071898;28;20819;-53
2022/07/22 02:52:18;;;;;;;19.20;12.63;;;18.30;1.00;;;;;;5073051;28;20395;-53
2022/07/22 02:54:44;;;;;;;17.63;12.17;;;18.40;1.00;;;;;;5088794;28;20405;-62
2022/07/22 02:57:09;;;;;;;17.30;11.90;;;18.50;1.00;;;;;;5089162;28;20762;-53
2022/07/22 02:59:35;;;;;;;23.20;12.40;;;18.40;1.00;;;;;;5089771;28;20765;-53
2022/07/22 03:02:01;;;;;;;19.03;12.83;;;18.40;1.00;;;;;;5088323;28;20370;-53
2022/07/22 03:04:26;;;;;;;18.67;12.13;;;18.30;1.00;;;;;;5089467;28;20378;-53
2022/07/22 03:06:52;;;;;;;18.65;11.95;;;18.40;1.00;;;;;;5088885;28;20406;-53
2022/07/22 03:09:17;;;;;;;18.03;11.73;;;18.30;1.00;;;;;;5087931;28;20886;-54
2022/07/22 03:11:43;;;;;;;19.47;12.83;;;18.30;13.70;;;;;;5088815;28;20863;-61
2022/07/22 03:14:09;;;;;;;20.95;13.38;;;18.20;14.10;;;;;;5091259;28;20381;-57
2022/07/22 03:16:34;;;;;;;20.20;12.20;;;18.10;29.30;;;;;;5092108;28;20402;-55
2022/07/22 03:19:00;;;;;;;21.00;13.40;;;18.20;39.40;;;;;;5092702;28;20389;-53
2022/07/22 03:21:26;;;;;;;19.95;12.93;;;18.10;45.30;;;;;;5093408;28;20469;-55
2022/07/22 03:23:53;;;;;;;19.25;13.00;;;18.10;42.20;;;;;;5092307;28;20442;-53
2022/07/22 03:26:20;;;;;;;18.23;12.23;;;18.10;45.50;;;;;;5090079;28;20401;-54
2022/07/22 03:28:46;;;;;;;19.33;12.98;;;18.10;49.10;;;;;;5075900;28;20421;-62
2022/07/22 03:31:12;;;;;;;21.10;12.55;;;18.00;81.00;;;;;;5076157;28;20387;-53
2022/07/22 03:33:38;;;;;;;22.40;14.10;;;17.90;99.90;;;;;;5072497;28;20770;-55
2022/07/22 03:36:05;;;;;;;23.60;15.50;;;18.00;99.90;;;;;;5080589;28;21063;-52
2022/07/22 03:38:31;;;;;;;23.23;14.50;;;17.90;98.70;;;;;;5089032;28;20405;-52
2022/07/22 03:40:56;;;;;;;25.45;15.90;;;18.00;99.90;;;;;;5085529;28;20872;-52
2022/07/22 03:43:22;;;;;;;26.92;16.20;;;17.90;99.90;;;;;;5092548;28;20378;-52
2022/07/22 03:45:48;;;;;;;23.83;15.70;;;17.90;97.40;;;;;;5091469;28;20379;-53
2022/07/22 03:48:13;;;;;;;23.80;14.83;;;18.00;97.40;;;;;;5092419;28;20732;-53
2022/07/22 03:50:39;;;;;;;24.98;15.27;;;18.00;94.10;;;;;;5087190;28;20928;-55
2022/07/22 03:53:04;;;;;;;20.67;13.00;;;18.00;95.00;;;;;;5085494;28;20384;-52
2022/07/22 03:55:30;;;;;;;23.60;14.37;;;18.00;97.70;;;;;;5080873;28;20390;-58
2022/07/22 03:57:56;;;;;;;20.87;14.03;;;18.00;76.30;;;;;;5091531;28;20394;-52
2022/07/22 04:00:21;;;;;;;22.17;14.50;;;18.00;90.70;;;;;;5086526;28;20447;-53
2022/07/22 04:02:47;;;;;;;20.52;13.57;;;17.90;98.00;;;;;;5089263;28;20732;-60
2022/07/22 04:05:13;;;;;;;21.02;14.27;;;17.90;99.90;;;;;;5105096;28;20405;-55
2022/07/22 04:07:38;;;;;;;23.58;14.07;;;17.90;99.90;;;;;;5072392;28;20418;-53
2022/07/22 04:10:05;;;;;;;20.70;13.97;;;18.00;99.90;;;;;;5068092;28;20383;-57
2022/07/22 04:12:38;;;;;;;21.25;13.32;;;18.00;99.90;;;;;;5084615;28;20402;-52
2022/07/22 04:15:05;;;;;;;22.52;13.35;;;18.00;99.90;;;;;;5085642;28;21099;-54
2022/07/22 04:17:31;;;;;;;21.37;13.20;;;18.10;99.90;;;;;;5084885;28;20435;-54
2022/07/22 04:19:57;;;;;;;19.27;12.50;;;18.10;87.10;;;;;;5071267;28;20399;-53
2022/07/22 04:22:23;;;;;;;21.55;13.35;;;18.20;93.10;;;;;;5088178;28;20473;-53
2022/07/22 04:24:48;;;;;;;19.90;13.02;;;18.30;52.00;;;;;;5088564;28;20386;-56
2022/07/22 04:27:14;;;;;;;21.77;12.97;;;18.40;55.70;;;;;;5082641;28;20518;-58
2022/07/22 04:29:39;;;;;;;21.30;12.63;;;18.50;41.60;;;;;;5077546;28;20465;-59
2022/07/22 04:32:05;;;;;;;20.67;12.40;;;18.70;14.30;;;;;;5086237;28;20455;-55
2022/07/22 04:34:31;;;;;;;18.75;10.90;;;18.90;1.00;;;;;;5089830;28;20390;-53
2022/07/22 04:36:57;;;;;;;23.47;12.53;;;19.00;1.00;;;;;;5085180;28;20381;-55
2022/07/22 04:39:22;;;;;;;19.63;11.73;;;19.10;1.00;;;;;;5086468;28;20402;-56
2022/07/22 04:41:48;;;;;;;20.30;12.20;;;19.30;1.00;;;;;;5070770;28;20537;-59
2022/07/22 04:44:14;;;;;;;16.93;11.50;;;19.40;1.00;;;;;;5088118;28;20390;-54
2022/07/22 04:46:39;;;;;;;19.87;11.50;;;19.40;1.00;;;;;;5086259;28;20743;-54
2022/07/22 04:49:05;;;;;;;19.17;11.07;;;19.40;1.00;;;;;;5088304;28;20452;-53
2022/07/22 04:51:31;;;;;;;19.33;11.55;;;19.50;1.00;;;;;;5079873;28;20392;-54
2022/07/22 04:53:56;;;;;;;17.30;10.90;;;19.70;1.00;;;;;;5080676;28;20923;-54
2022/07/22 04:56:22;;;;;;;18.83;11.27;;;19.60;1.00;;;;;;5084701;28;20901;-53
2022/07/22 04:58:48;;;;;;;18.80;10.60;;;19.60;1.00;;;;;;5082992;28;20401;-58
2022/07/22 05:01:13;;;;;;;17.63;11.10;;;19.90;1.00;;;;;;5077409;28;20473;-54
2022/07/22 05:03:42;;;;;;;18.83;12.10;;;20.00;1.00;;;;;;5086657;28;20716;-53
2022/07/22 05:06:08;;;;;;;16.63;10.98;;;20.50;1.00;;;;;;5070982;28;21185;-54
2022/07/22 05:08:34;;;;;;;17.02;10.15;;;21.60;1.00;;;;;;5086278;28;20398;-54
2022/07/22 05:10:59;;;;;;;15.70;10.67;;;22.80;99.90;;;;;;5075948;28;20426;-54
2022/07/22 05:13:25;;;;;;;14.50;10.30;;;24.20;99.90;;;;;;5077485;28;20550;-56
2022/07/22 05:15:50;;;;;;;15.20;10.10;;;25.20;99.90;;;;;;5069393;28;20388;-55
2022/07/22 05:18:16;;;;;;;17.10;10.40;;;25.80;55.00;;;;;;5069385;28;20458;-55
2022/07/22 05:20:42;;;;;;;15.13;10.00;;;26.90;1.00;;;;;;5069930;28;20383;-53
2022/07/22 05:23:08;;;;;;;15.02;9.82;;;27.60;1.00;;;;;;5078240;28;20469;-54
2022/07/22 05:25:34;;;;;;;15.48;10.10;;;28.50;1.00;;;;;;5079732;28;20724;-54
2022/07/22 05:28:00;;;;;;;14.60;9.57;;;28.80;99.90;;;;;;5072524;28;20484;-52
2022/07/22 05:30:26;;;;;;;15.05;9.20;;;28.60;99.90;;;;;;5086182;28;20389;-54
2022/07/22 05:32:52;;;;;;;15.38;9.68;;;28.70;99.90;;;;;;5087789;28;20851;-52
2022/07/22 05:35:18;;;;;;;14.32;10.20;;;28.60;99.90;;;;;;5088112;28;20515;-52
2022/07/22 05:37:44;;;;;;;14.95;10.57;;;28.40;99.90;;;;;;5083329;28;20394;-55
2022/07/22 05:40:10;;;;;;;14.00;9.60;;;28.80;99.90;;;;;;5086217;28;20394;-52
2022/07/22 05:42:36;;;;;;;16.00;9.90;;;28.90;99.90;;;;;;5081491;28;20486;-54
2022/07/22 05:45:02;;;;;;;15.53;10.30;;;29.00;99.90;;;;;;5079840;28;20387;-54
2022/07/22 05:47:27;;;;;;;13.60;9.20;;;29.50;99.90;;;;;;5075889;28;20971;-55
2022/07/22 05:49:53;;;;;;;14.30;9.70;;;29.80;99.90;;;;;;5068979;28;20395;-55
2022/07/22 05:52:19;;;;;;;13.30;9.90;;;29.60;99.90;;;;;;5069982;28;20394;-52
2022/07/22 05:54:45;;;;;;;15.10;9.63;;;28.80;99.90;;;;;;5069672;28;20378;-58
2022/07/22 05:57:10;;;;;;;18.80;10.23;;;29.00;99.90;;;;;;5069831;28;20406;-52
2022/07/22 05:59:36;;;;;;;14.33;9.57;;;29.00;99.90;;;;;;5069988;28;20858;-52
2022/07/22 06:02:03;;;;;;;14.43;9.70;;;28.70;99.90;;;;;;5069454;28;20375;-54
2022/07/22 06:04:28;;;;;;;14.40;9.52;;;29.10;99.90;;;;;;5077183;28;20398;-54
2022/07/22 06:06:54;;;;;;;13.95;9.23;;;29.20;99.90;;;;;;5083614;28;20943;-53
2022/07/22 06:09:20;;;;;;;15.33;9.33;;;28.70;99.90;;;;;;5089729;28;20408;-53
2022/07/22 06:11:46;;;;;;;14.60;9.80;;;28.70;99.90;;;;;;5089597;28;20382;-61
2022/07/22 06:14:11;;;;;;;16.80;10.55;;;28.80;99.90;;;;;;5089258;28;20397;-52
2022/07/22 06:16:37;;;;;;;15.40;10.50;;;29.00;99.90;;;;;;5089599;28;20374;-52
2022/07/22 06:19:03;;;;;;;14.80;9.23;;;29.50;99.90;;;;;;5087192;28;20765;-56
2022/07/22 06:21:28;;;;;;;13.65;9.60;;;29.40;99.90;;;;;;5087214;28;20469;-53
2022/07/22 06:23:54;;;;;;;15.80;9.90;;;29.40;99.90;;;;;;5084527;28;20407;-52
2022/07/22 06:26:20;;;;;;;13.70;9.47;;;30.30;99.90;;;;;;5082335;28;20390;-52
2022/07/22 06:28:46;;;;;;;15.43;9.40;;;30.10;99.90;;;;;;5069069;28;20497;-58
2022/07/22 06:31:12;;;;;;;14.50;9.40;;;30.60;99.90;;;;;;5069242;28;20418;-53
2022/07/22 06:33:38;;;;;;;12.93;9.60;;;30.80;99.90;;;;;;5069505;28;20380;-54
2022/07/22 06:36:04;;;;;;;14.30;9.20;;;31.00;99.90;;;;;;5084728;28;20473;-53
2022/07/22 06:38:31;;;;;;;14.18;11.60;;;31.60;99.90;;;;;;5089771;28;20389;-53
2022/07/22 06:40:57;;;;;;;13.07;9.68;;;32.50;99.90;;;;;;5088148;28;20897;-54
2022/07/22 06:43:22;;;;;;;12.97;9.30;;;32.60;99.90;;;;;;5089643;28;20382;-54
2022/07/22 06:45:48;;;;;;;16.00;10.20;;;32.90;99.90;;;;;;5089147;28;20419;-60
2022/07/22 06:48:14;;;;;;;14.77;9.80;;;32.80;99.90;;;;;;5091403;28;20487;-53
2022/07/22 06:50:39;;;;;;;13.60;9.68;;;32.10;99.90;;;;;;5093608;28;20401;-53
2022/07/22 06:53:05;;;;;;;13.88;10.75;;;31.90;99.90;;;;;;5088792;28;20416;-53
2022/07/22 06:55:32;;;;;;;14.10;9.83;;;32.70;99.90;;;;;;5087000;28;20390;-55
2022/07/22 06:57:57;;;;;;;14.13;10.98;;;32.00;99.90;;;;;;5091115;28;20961;-53
2022/07/22 07:00:23;;;;;;;13.85;11.45;;;32.10;99.90;;;;;;5093413;28;20484;-53
2022/07/22 07:02:48;;;;;;;13.90;9.35;;;32.60;99.90;;;;;;5092944;28;20758;-58
2022/07/22 07:05:14;;;;;;;13.67;9.27;;;33.20;99.90;;;;;;5093179;28;20443;-53
2022/07/22 07:07:40;;;;;;;14.52;11.27;;;32.90;99.90;;;;;;5092803;28;20493;-54
2022/07/22 07:10:06;;;;;;;15.35;12.55;;;33.70;99.90;;;;;;5092557;28;20935;-53
2022/07/22 07:12:32;;;;;;;15.00;13.40;;;34.00;99.90;;;;;;5093187;28;20374;-53
2022/07/22 07:14:57;;;;;;;14.88;11.70;;;34.20;99.90;;;;;;5092515;28;20733;-53
2022/07/22 07:17:24;;;;;;;17.73;12.50;;;34.60;99.90;;;;;;5093779;28;20386;-55
2022/07/22 07:19:49;;;;;;;14.43;12.50;;;34.60;99.90;;;;;;5092595;28;20389;-58
2022/07/22 07:22:15;;;;;;;16.23;12.30;;;34.00;99.90;;;;;;5093276;28;20366;-54
2022/07/22 07:24:41;;;;;;;14.80;12.57;;;34.60;99.90;;;;;;5093463;28;20443;-54
2022/07/22 07:27:06;;;;;;;15.40;12.57;;;34.60;99.90;;;;;;5092453;28;20451;-55
2022/07/22 07:29:32;;;;;;;13.70;12.30;;;35.30;99.90;;;;;;5093580;28;20731;-54
2022/07/22 07:31:58;;;;;;;15.50;11.70;;;35.50;99.90;;;;;;5079145;28;20392;-55
2022/07/22 07:34:24;;;;;;;16.40;13.00;;;35.80;99.90;;;;;;5071899;28;20841;-54
2022/07/22 07:36:49;;;;;;;14.48;12.80;;;34.90;99.90;;;;;;5079918;28;20549;-60
2022/07/22 07:39:15;;;;;;;14.63;12.30;;;34.80;99.90;;;;;;5090239;28;20882;-54
2022/07/22 07:41:41;;;;;;;15.93;13.57;;;35.30;99.90;;;;;;5086244;28;20499;-54
2022/07/22 07:44:07;;;;;;;14.45;12.30;;;36.40;99.90;;;;;;5089123;28;20417;-55
2022/07/22 07:46:33;;;;;;;15.80;12.47;;;36.50;99.90;;;;;;5084157;28;20400;-54
2022/07/22 07:48:58;;;;;;;14.02;11.02;;;37.00;99.90;;;;;;5080828;28;20478;-54
2022/07/22 07:51:24;;;;;;;15.82;14.13;;;37.40;99.90;;;;;;5092611;28;20376;-54
2022/07/22 07:53:50;;;;;;;16.23;14.40;;;36.90;99.90;;;;;;5076656;28;20411;-60
2022/07/22 07:56:16;;;;;;;15.67;13.00;;;36.30;99.90;;;;;;5071774;28;20380;-56
2022/07/22 07:58:42;;;;;;;14.97;12.80;;;36.40;99.90;;;;;;5071494;28;20376;-56
2022/07/22 08:01:07;;;;;;;14.23;12.25;;;36.40;99.90;;;;;;5075191;28;20390;-55
2022/07/22 08:03:33;;;;;;;15.00;13.10;;;36.30;99.90;;;;;;5092012;28;20866;-53
2022/07/22 08:05:59;;;;;;;15.30;13.23;;;36.60;99.90;;;;;;5091658;28;20413;-55
2022/07/22 08:08:25;;;;;;;15.70;12.90;;;35.90;99.90;;;;;;5091852;28;20402;-54
2022/07/22 08:10:51;;;;;;;14.38;11.65;;;36.10;99.90;;;;;;5091321;28;20515;-61
2022/07/22 08:13:17;;;;;;;14.35;12.23;;;36.70;99.90;;;;;;5091797;28;20413;-53
2022/07/22 08:15:43;;;;;;;15.97;13.83;;;38.00;99.90;;;;;;5092265;28;20428;-55
2022/07/22 08:18:08;;;;;;;14.45;10.80;;;38.50;99.90;;;;;;5090893;28;20904;-55
2022/07/22 08:20:34;;;;;;;15.13;12.30;;;38.30;99.90;;;;;;5092104;28;20855;-56
2022/07/22 08:23:00;;;;;;;14.77;13.27;;;37.40;99.90;;;;;;5091113;28;20518;-55
2022/07/22 08:25:25;;;;;;;16.10;11.23;;;37.90;99.90;;;;;;5091854;28;20431;-56
2022/07/22 08:27:51;;;;;;;14.57;10.03;;;38.80;99.90;;;;;;5091017;28;20759;-61
2022/07/22 08:30:18;;;;;;;12.88;9.50;;;39.80;99.90;;;;;;5091947;28;20480;-55
2022/07/22 08:32:44;;;;;;;14.60;10.25;;;38.90;99.90;;;;;;5091683;28;20411;-54
2022/07/22 08:35:10;;;;;;;12.60;10.02;;;37.40;99.90;;;;;;5089825;28;20485;-54
2022/07/22 08:37:36;;;;;;;15.80;9.77;;;38.30;99.90;;;;;;5091254;28;21094;-55
2022/07/22 08:40:02;;;;;;;13.75;9.98;;;38.60;99.90;;;;;;5090387;28;20404;-55
2022/07/22 08:42:28;;;;;;;13.20;9.60;;;38.80;99.90;;;;;;5091626;28;20451;-55
2022/07/22 08:44:54;;;;;;;14.00;11.37;;;38.70;99.90;;;;;;5071686;28;20884;-57
2022/07/22 08:47:23;;;;;;;12.30;9.80;;;38.10;99.90;;;;;;5077229;28;20414;-56
2022/07/22 08:49:49;;;;;;;15.38;10.90;;;37.70;99.90;;;;;;5091239;28;20493;-62
2022/07/22 08:52:15;;;;;;;13.93;10.20;;;37.70;99.90;;;;;;5076176;28;20469;-55
2022/07/22 08:54:41;;;;;;;14.07;10.30;;;37.40;99.90;;;;;;5090464;28;20442;-56
2022/07/22 08:57:07;;;;;;;14.37;10.23;;;37.00;99.90;;;;;;5070179;28;20400;-55
2022/07/22 08:59:32;;;;;;;16.48;10.40;;;37.70;99.90;;;;;;5071119;28;20440;-57
2022/07/22 09:02:04;;;;;;;14.40;9.60;;;38.30;99.90;;;;;;5070187;28;20463;-55
2022/07/22 09:04:31;;;;;;;15.27;10.80;;;39.10;99.90;;;;;;5071076;28;20472;-55
2022/07/22 09:06:57;;;;;;;14.90;10.70;;;38.70;99.90;;;;;;5070008;28;20761;-55
2022/07/22 09:09:34;;;;;;;14.02;10.13;;;38.30;99.90;;;;;;5069143;28;20461;-55
2022/07/22 09:12:09;;;;;;;14.10;9.30;;;38.60;99.90;;;;;;5069971;28;20380;-55
2022/07/22 09:14:49;;;;;;;14.38;9.95;;;39.00;99.90;;;;;;5070742;28;20430;-55
2022/07/22 09:17:29;;;;;;;12.23;9.82;;;38.80;99.90;;;;;;5068720;28;20880;-57
2022/07/22 09:19:57;;;;;;;13.80;9.57;;;38.90;99.90;;;;;;5069923;28;20857;-55
2022/07/22 09:22:43;;;;;;;13.52;9.70;;;39.50;99.90;;;;;;5070494;28;20462;-53
2022/07/22 09:25:44;;;;;;;12.93;9.50;;;39.50;99.90;;;;;;5069404;28;20383;-54
2022/07/22 09:28:12;;;;;;;12.45;9.13;;;;;;;;;;5046993;28;20429;-54
2022/07/22 09:30:45;;;;;;;14.05;9.35;;;39.70;99.90;;;;;;5065952;28;20479;-56
2022/07/22 09:33:11;;;;;;;14.70;9.68;;;40.10;99.90;;;;;;5069478;28;20372;-55
2022/07/22 09:35:39;;;;;;;13.57;9.43;;;39.60;99.90;;;;;;5070155;28;20429;-55
2022/07/22 09:38:07;;;;;;;12.50;9.70;;;40.00;99.90;;;;;;5069416;28;20391;-54
2022/07/22 09:40:40;;;;;;;12.15;9.32;;;40.30;99.90;;;;;;5070022;28;20380;-54
2022/07/22 09:43:12;;;;;;;12.55;11.05;;;40.30;99.90;;;;;;5069315;28;20388;-55
2022/07/22 09:46:09;;;;;;;11.40;8.52;;;40.80;99.90;;;;;;5070322;28;20465;-54
2022/07/22 09:48:37;;;;;;;11.93;8.60;;;40.20;99.90;;;;;;5065337;28;20420;-55
2022/07/22 09:51:03;;;;;;;13.07;9.50;;;40.40;99.90;;;;;;5069581;28;20395;-54
2022/07/22 09:53:31;;;;;;;10.95;8.50;;;40.70;99.90;;;;;;5069415;28;20387;-54
2022/07/22 09:55:58;;;;;;;13.10;9.70;;;40.20;99.90;;;;;;5079749;28;20398;-55
2022/07/22 09:58:24;;;;;;;12.00;9.02;;;40.60;99.90;;;;;;5090114;28;20396;-55
2022/07/22 10:00:52;;;;;;;13.67;9.13;;;40.10;99.90;;;;;;5089791;28;20406;-62
2022/07/22 10:03:26;;;;;;;13.27;9.10;;;39.60;99.90;;;;;;5089581;28;20481;-56
2022/07/22 10:05:53;;;;;;;13.50;12.10;;;39.60;99.90;;;;;;5089511;28;20897;-61
2022/07/22 10:08:19;;;;;;;14.38;12.75;;;39.40;99.90;;;;;;5089955;28;20408;-55
2022/07/22 10:10:45;;;;;;;14.15;12.68;;;38.60;99.90;;;;;;5089304;28;20827;-55
2022/07/22 10:13:12;;;;;;;13.43;12.02;;;38.80;99.90;;;;;;5087364;28;20409;-55
2022/07/22 10:15:38;;;;;;;14.20;12.60;;;39.10;99.90;;;;;;5069833;28;20857;-54
2022/07/22 10:18:07;;;;;;;16.25;12.70;;;39.40;99.90;;;;;;5068962;28;20384;-55
2022/07/22 10:20:34;;;;;;;14.07;10.75;;;39.50;99.90;;;;;;5069468;28;20386;-55
2022/07/22 10:23:05;;;;;;;10.90;9.60;;;40.00;99.90;;;;;;5068039;28;20376;-55
2022/07/22 10:25:48;;;;;;;13.00;10.00;;;39.80;99.90;;;;;;5069110;28;20812;-53
2022/07/22 10:28:21;;;;;;;14.65;10.40;;;39.90;99.90;;;;;;5068816;28;20819;-54
2022/07/22 10:30:47;;;;;;;14.77;12.37;;;39.20;99.90;;;;;;5077025;28;20424;-56
2022/07/22 10:33:17;;;;;;;12.27;10.20;;;39.20;99.90;;;;;;5079784;28;21314;-55
2022/07/22 10:35:42;;;;;;;12.95;11.55;;;39.20;99.90;;;;;;5082757;28;20423;-55
2022/07/22 10:38:10;;;;;;;12.80;10.83;;;38.30;99.90;;;;;;5086278;28;20402;-55
2022/07/22 10:41:00;;;;;;;14.52;8.73;;;37.70;99.90;;;;;;5088504;28;20420;-55
2022/07/22 10:43:28;;;;;;;12.52;11.23;;;36.60;99.90;;;;;;5076681;28;20465;-55
2022/07/22 10:45:58;;;;;;;12.43;11.13;;;35.70;99.90;;;;;;5068802;28;20853;-60
2022/07/22 10:48:36;;;;;;;12.00;10.70;;;35.10;99.90;;;;;;5077883;28;20520;-56
2022/07/22 10:51:09;;;;;;;12.75;11.38;;;34.30;99.90;;;;;;5088433;28;20725;-55
2022/07/22 10:54:01;;;;;;;13.85;12.30;;;33.80;99.90;;;;;;5089119;28;20386;-55
2022/07/22 10:56:33;;;;;;;13.32;10.82;;;33.70;99.90;;;;;;5073804;28;21339;-55
2022/07/22 10:59:19;;;;;;;12.93;10.60;;;33.70;99.90;;;;;;5068289;28;20498;-55
2022/07/22 11:01:47;;;;;;;14.35;10.85;;;33.30;99.90;;;;;;5069519;28;20391;-55
2022/07/22 11:04:14;;;;;;;14.30;11.80;;;33.20;99.90;;;;;;5068175;28;20403;-54
2022/07/22 11:06:41;;;;;;;14.55;12.18;;;33.00;99.90;;;;;;5088212;28;20436;-55
2022/07/22 11:09:09;;;;;;;17.85;11.45;;;33.00;99.90;;;;;;5088442;28;20408;-55
2022/07/22 11:11:38;;;;;;;14.00;11.30;;;32.80;99.90;;;;;;5089711;28;20373;-55
2022/07/22 11:14:35;;;;;;;13.43;10.40;;;32.40;99.90;;;;;;5079540;28;20384;-55
2022/07/22 11:17:06;;;;;;;13.75;10.57;;;32.30;99.90;;;;;;5055439;28;20392;-55
2022/07/22 11:19:33;;;;;;;14.65;11.38;;;32.70;99.90;;;;;;5068935;28;20403;-55
2022/07/22 11:22:13;;;;;;;14.05;10.52;;;33.10;99.90;;;;;;5068293;28;20404;-54
2022/07/22 11:24:40;;;;;;;14.10;10.20;;;33.00;99.90;;;;;;5068922;28;20470;-54
2022/07/22 11:27:14;;;;;;;15.75;10.50;;;33.00;99.90;;;;;;5067835;28;20419;-55
2022/07/22 11:29:44;;;;;;;13.68;10.60;;;33.10;99.90;;;;;;5069028;28;20388;-53
2022/07/22 11:32:11;;;;;;;12.70;10.80;;;33.30;99.90;;;;;;5068561;28;20384;-54
2022/07/22 11:34:42;;;;;;;13.75;11.60;;;33.20;99.90;;;;;;5069233;28;20376;-54
2022/07/22 11:37:08;;;;;;;14.88;10.52;;;33.30;99.90;;;;;;5087316;28;20427;-54
2022/07/22 11:39:35;;;;;;;13.07;11.02;;;33.50;99.90;;;;;;5090585;28;20388;-53
2022/07/22 11:42:02;;;;;;;14.20;11.20;;;33.80;99.90;;;;;;5091757;28;20405;-54
2022/07/22 11:44:34;;;;;;;13.37;10.80;;;33.80;99.90;;;;;;5082798;28;20466;-54
2022/07/22 11:47:00;;;;;;;13.32;11.10;;;34.00;99.90;;;;;;5071661;28;20797;-54
2022/07/22 11:49:34;;;;;;;13.10;10.60;;;33.80;99.90;;;;;;5073230;28;20411;-53
2022/07/22 11:52:01;;;;;;;12.83;10.30;;;33.80;99.90;;;;;;5071661;28;20375;-53
2022/07/22 11:54:27;;;;;;;13.40;10.30;;;33.40;99.90;;;;;;5071771;28;20765;-53
2022/07/22 11:56:53;;;;;;;13.02;11.40;;;33.40;99.90;;;;;;5071696;28;20391;-60
2022/07/22 11:59:19;;;;;;;13.40;10.55;;;33.00;99.90;;;;;;5071705;28;20380;-54
2022/07/22 12:01:46;;;;;;;12.00;9.93;;;33.10;99.90;;;;;;5072751;28;20711;-53
2022/07/22 12:04:18;;;;;;;13.73;11.65;;;33.10;99.90;;;;;;5071144;28;20364;-54
2022/07/22 12:06:45;;;;;;;13.05;10.25;;;33.10;99.90;;;;;;5072103;28;20447;-54
2022/07/22 12:09:22;;;;;;;12.38;10.32;;;33.60;99.90;;;;;;5071210;28;20571;-54
2022/07/22 12:11:50;;;;;;;13.45;11.32;;;33.70;99.90;;;;;;5072183;28;20383;-54
2022/07/22 12:14:21;;;;;;;12.75;10.73;;;33.90;99.90;;;;;;5070797;28;20384;-55
2022/07/22 12:17:05;;;;;;;15.17;12.27;;;34.00;99.90;;;;;;5071912;28;20442;-54
2022/07/22 12:19:33;;;;;;;13.25;11.80;;;34.20;99.90;;;;;;5072011;28;20421;-53
2022/07/22 12:22:15;;;;;;;13.00;10.77;;;33.70;99.90;;;;;;5070996;28;20386;-54
2022/07/22 12:24:46;;;;;;;13.57;10.47;;;33.60;99.90;;;;;;5078042;28;20405;-54
2022/07/22 12:27:17;;;;;;;12.27;10.15;;;33.60;99.90;;;;;;5079035;28;20510;-53
2022/07/22 12:29:47;;;;;;;12.77;10.05;;;33.80;99.90;;;;;;5075149;28;20485;-53
2022/07/22 12:32:26;;;;;;;11.88;10.45;;;33.80;99.90;;;;;;5071965;28;20392;-54
2022/07/22 12:34:57;;;;;;;13.18;10.88;;;33.60;99.90;;;;;;5071389;28;20380;-53